Time;durP1;ratioP1;P1;durP2;ratioP2;P2;SDS_P1;SDS_P2;PMS_P1;PMS_P2;Temp;Humidity;BMP_temperature;BMP_pressure;BME280_temperature;BME280_humidity;BME280_pressure;Samples;Min_cycle;Max_cycle;Signal;HPM_P1;HPM_P2
2022/04/15 00:00:43;;;;;;;88.33;14.60;;;;;;;;;;4959424;28;20766;-53
2022/04/15 00:03:11;;;;;;;116.70;18.67;;;;;;;;;;4970067;28;20314;-54
2022/04/15 00:05:40;;;;;;;104.97;17.50;;;;;;;;;;4964060;28;20210;-54
2022/04/15 00:08:07;;;;;;;93.80;15.67;;;;;;;;;;4954761;28;20183;-55
2022/04/15 00:10:33;;;;;;;101.67;17.30;;;;;;;;;;4957476;28;20610;-53
2022/04/15 00:13:00;;;;;;;99.03;16.00;;;;;;;;;;4951553;28;20229;-53
2022/04/15 00:15:27;;;;;;;99.80;16.77;;;;;;;;;;4973766;28;20222;-54
2022/04/15 00:17:53;;;;;;;120.00;19.57;;;;;;;;;;4959445;28;20218;-53
2022/04/15 00:20:19;;;;;;;74.47;13.00;;;;;;;;;;4959235;28;20614;-53
2022/04/15 00:22:45;;;;;;;67.40;11.57;;;;;;;;;;4958436;28;20192;-54
2022/04/15 00:25:11;;;;;;;91.00;15.00;;;;;;;;;;4961828;28;20214;-53
2022/04/15 00:27:38;;;;;;;109.40;17.90;;;;;;;;;;4952543;28;20219;-54
2022/04/15 00:30:05;;;;;;;81.77;13.17;;;;;;;;;;4964486;28;20591;-54
2022/04/15 00:32:31;;;;;;;102.30;17.03;;;;;;;;;;4953014;28;20194;-53
2022/04/15 00:34:57;;;;;;;121.53;19.37;;;;;;;;;;4966369;28;20624;-53
2022/04/15 00:37:23;;;;;;;109.10;17.53;;;;;;;;;;4955634;28;20221;-54
2022/04/15 00:39:50;;;;;;;112.20;18.17;;;;;;;;;;4956015;28;20265;-54
2022/04/15 00:42:16;;;;;;;121.67;20.07;;;;;;;;;;4957243;28;20702;-54
2022/04/15 00:44:42;;;;;;;97.00;16.13;;;;;;;;;;4961894;28;21155;-54
2022/04/15 00:47:18;;;;;;;94.83;15.27;;;;;;;;;;4956341;28;20206;-53
2022/04/15 00:49:44;;;;;;;132.03;21.07;;;;;;;;;;4955651;28;20385;-54
2022/04/15 00:52:11;;;;;;;113.57;18.83;;;;;;;;;;4955455;28;20336;-54
2022/04/15 00:54:39;;;;;;;116.43;19.40;;;;;;;;;;4958509;28;20222;-54
2022/04/15 00:57:05;;;;;;;73.60;12.23;;;;;;;;;;4955018;28;20332;-54
2022/04/15 00:59:32;;;;;;;118.90;19.90;;;;;;;;;;4951960;28;20190;-53
2022/04/15 01:01:58;;;;;;;145.20;23.37;;;;;;;;;;4968191;28;20186;-54
2022/04/15 01:04:25;;;;;;;138.17;21.97;;;;;;;;;;4951163;28;22960;-53
2022/04/15 01:06:51;;;;;;;54.83;9.40;;;;;;;;;;4948678;28;20225;-53
2022/04/15 01:09:18;;;;;;;97.97;16.10;;;;;;;;;;4975656;28;20294;-53
2022/04/15 01:11:44;;;;;;;85.07;14.13;;;;;;;;;;4972410;28;20244;-55
2022/04/15 01:14:11;;;;;;;80.00;13.50;;;;;;;;;;4957244;28;20182;-54
2022/04/15 01:16:37;;;;;;;161.00;25.80;;;;;;;;;;4953103;28;20595;-54
2022/04/15 01:19:03;;;;;;;126.97;21.00;;;;;;;;;;4955406;28;20220;-55
2022/04/15 01:21:31;;;;;;;120.43;19.27;;;;;;;;;;4957067;28;20707;-53
2022/04/15 01:23:58;;;;;;;51.70;8.60;;;;;;;;;;4965821;28;20221;-54
2022/04/15 01:26:24;;;;;;;139.43;22.60;;;;;;;;;;4969926;28;20712;-55
2022/04/15 01:28:50;;;;;;;82.20;13.70;;;;;;;;;;4949005;28;20183;-54
2022/04/15 01:31:16;;;;;;;79.03;13.13;;;;;;;;;;4961625;28;20241;-55
2022/04/15 01:33:42;;;;;;;114.97;18.67;;;;;;;;;;4954826;28;20226;-54
2022/04/15 01:36:08;;;;;;;144.67;23.30;;;;;;;;;;4945665;28;20969;-54
2022/04/15 01:38:34;;;;;;;117.87;19.13;;;;;;;;;;4954490;28;20233;-56
2022/04/15 01:41:00;;;;;;;117.80;18.90;;;;;;;;;;4951760;28;20187;-55
2022/04/15 01:43:26;;;;;;;101.80;16.70;;;;;;;;;;4955523;28;20980;-54
2022/04/15 01:45:52;;;;;;;64.70;11.17;;;;;;;;;;4954788;28;20344;-54
2022/04/15 01:48:17;;;;;;;143.80;23.30;;;;;;;;;;4962485;28;20378;-54
2022/04/15 01:50:43;;;;;;;93.97;15.83;;;;;;;;;;4945743;28;20230;-55
2022/04/15 01:53:09;;;;;;;121.03;20.20;;;;;;;;;;4948228;28;20274;-53
2022/04/15 01:55:35;;;;;;;47.03;8.20;;;;;;;;;;4946376;28;20238;-54
2022/04/15 01:58:01;;;;;;;88.37;14.73;;;;;;;;;;4944722;28;20242;-55
2022/04/15 02:00:27;;;;;;;144.30;24.33;;;;;;;;;;4940116;28;20592;-55
2022/04/15 02:02:53;;;;;;;110.90;18.20;;;;;;;;;;4946187;28;20393;-53
2022/04/15 02:05:19;;;;;;;102.00;16.10;;;;;;;;;;4945422;28;20186;-54
2022/04/15 02:07:45;;;;;;;157.33;25.53;;;;;;;;;;4941776;28;20348;-55
2022/04/15 02:10:11;;;;;;;139.53;22.17;;;;;;;;;;4944201;28;20292;-55
2022/04/15 02:12:37;;;;;;;155.33;24.33;;;;;;;;;;4944132;28;20277;-54
2022/04/15 02:15:04;;;;;;;149.03;23.53;;;;;;;;;;4950570;28;20627;-55
2022/04/15 02:17:30;;;;;;;157.00;25.50;;;;;;;;;;4942970;28;20221;-54
2022/04/15 02:19:56;;;;;;;220.37;34.90;;;;;;;;;;4945664;28;20278;-55
2022/04/15 02:22:22;;;;;;;65.77;10.70;;;;;;;;;;4956235;28;20224;-54
2022/04/15 02:24:48;;;;;;;101.37;16.63;;;;;;;;;;4953459;28;20222;-54
2022/04/15 02:27:14;;;;;;;100.23;16.60;;;;;;;;;;4955349;28;20241;-55
2022/04/15 02:29:39;;;;;;;164.97;26.20;;;;;;;;;;4955312;28;20228;-55
2022/04/15 02:32:06;;;;;;;139.20;22.57;;;;;;;;;;4955637;28;20258;-55
2022/04/15 02:34:32;;;;;;;123.53;20.33;;;;;;;;;;4947192;28;20287;-54
2022/04/15 02:36:58;;;;;;;147.47;23.23;;;;;;;;;;4935462;28;20222;-55
2022/04/15 02:39:24;;;;;;;100.90;16.67;;;;;;;;;;4951314;28;20229;-55
2022/04/15 02:41:52;;;;;;;136.30;22.13;;;;;;;;;;4950104;28;20239;-55
2022/04/15 02:44:18;;;;;;;111.80;18.33;;;;;;;;;;4949803;28;20182;-55
2022/04/15 02:46:44;;;;;;;104.00;17.60;;;;;;;;;;4944488;28;20253;-54
2022/04/15 02:49:11;;;;;;;97.27;16.20;;;;;;;;;;4944988;28;20232;-55
2022/04/15 02:51:37;;;;;;;109.13;17.93;;;;;;;;;;4941209;28;20252;-54
2022/04/15 02:54:03;;;;;;;101.07;17.07;;;;;;;;;;4951115;28;20301;-54
2022/04/15 02:56:29;;;;;;;166.47;26.60;;;;;;;;;;4945742;28;20336;-55
2022/04/15 02:58:56;;;;;;;163.33;26.30;;;;;;;;;;4941788;28;20194;-56
2022/04/15 03:01:21;;;;;;;237.20;38.03;;;;;;;;;;4942479;28;20344;-55
2022/04/15 03:03:47;;;;;;;84.60;14.17;;;;;;;;;;4945728;28;20218;-54
2022/04/15 03:06:14;;;;;;;169.80;26.80;;;;;;;;;;4940857;28;20292;-55
2022/04/15 03:08:41;;;;;;;109.80;17.87;;;;;;;;;;4946771;28;20222;-56
2022/04/15 03:11:07;;;;;;;122.33;19.73;;;;;;;;;;4943925;28;20221;-55
2022/04/15 03:13:33;;;;;;;186.50;29.47;;;;;;;;;;4943167;28;20246;-56
2022/04/15 03:15:59;;;;;;;142.93;23.10;;;;;;;;;;4942295;28;20226;-54
2022/04/15 03:18:26;;;;;;;90.73;14.83;;;;;;;;;;4945856;28;21764;-56
2022/04/15 03:20:52;;;;;;;139.23;21.43;;;;;;;;;;4944329;28;20352;-55
2022/04/15 03:23:19;;;;;;;148.00;23.03;;;;;;;;;;4941687;28;20174;-55
2022/04/15 03:25:46;;;;;;;195.07;32.03;;;;;;;;;;4948798;28;20221;-54
2022/04/15 03:28:12;;;;;;;118.07;18.50;;;;;;;;;;4940581;28;20246;-55
2022/04/15 03:30:39;;;;;;;136.20;21.20;;;;;;;;;;4946716;28;20349;-55
2022/04/15 03:33:05;;;;;;;122.60;19.27;;;;;;;;;;4944774;28;20646;-55
2022/04/15 03:35:31;;;;;;;160.53;25.83;;;;;;;;;;4959404;28;20259;-55
2022/04/15 03:37:57;;;;;;;124.80;18.97;;;;;;;;;;4947853;28;20237;-55
2022/04/15 03:40:23;;;;;;;153.33;24.03;;;;;;;;;;4951731;28;20226;-55
2022/04/15 03:42:50;;;;;;;132.03;20.77;;;;;;;;;;4946618;28;20277;-55
2022/04/15 03:45:22;;;;;;;205.23;31.33;;;;;;;;;;4944210;28;20241;-55
2022/04/15 03:47:48;;;;;;;135.87;20.90;;;;;;;;;;4948079;28;20233;-55
2022/04/15 03:50:14;;;;;;;133.10;20.63;;;;;;;;;;4946267;28;20292;-55
2022/04/15 03:52:46;;;;;;;123.20;18.67;;;;;;;;;;4955932;28;20223;-55
2022/04/15 03:55:12;;;;;;;112.43;17.47;;;;;;;;;;4948404;28;20237;-56
2022/04/15 03:57:38;;;;;;;157.80;24.57;;;;;;;;;;4952433;28;20222;-56
2022/04/15 04:00:06;;;;;;;155.43;23.60;;;;;;;;;;4945779;28;20236;-55
2022/04/15 04:02:32;;;;;;;134.40;21.53;;;;;;;;;;4951546;28;20190;-56
2022/04/15 04:04:57;;;;;;;254.53;37.17;;;;;;;;;;4944578;28;20309;-55
2022/04/15 04:07:23;;;;;;;64.63;10.30;;;;;;;;;;4947372;28;20229;-55
2022/04/15 04:09:49;;;;;;;161.13;24.00;;;;;;;;;;4948639;28;20217;-54
2022/04/15 04:12:15;;;;;;;150.40;23.10;;;;;;;;;;4948105;28;20313;-55
2022/04/15 04:14:41;;;;;;;126.80;19.17;;;;;;;;;;4945243;28;20222;-55
2022/04/15 04:17:07;;;;;;;103.80;16.37;;;;;;;;;;4952682;28;20213;-56
2022/04/15 04:19:33;;;;;;;108.53;16.33;;;;;;;;;;4935839;28;20225;-55
2022/04/15 04:21:59;;;;;;;107.20;16.80;;;;;;;;;;4952714;28;20305;-53
2022/04/15 04:24:25;;;;;;;145.07;21.60;;;;;;;;;;4952468;28;20587;-55
2022/04/15 04:26:51;;;;;;;98.97;15.30;;;;;;;;;;4953515;28;20233;-56
2022/04/15 04:29:17;;;;;;;186.57;28.30;;;;;;;;;;4943490;28;20187;-55
2022/04/15 04:31:43;;;;;;;147.47;22.87;;;;;;;;;;4928308;28;20211;-55
2022/04/15 04:34:09;;;;;;;132.50;20.27;;;;;;;;;;4938805;28;20308;-55
2022/04/15 04:36:35;;;;;;;84.87;13.27;;;;;;;;;;4954491;28;20227;-55
2022/04/15 04:39:01;;;;;;;122.33;18.53;;;;;;;;;;4957163;28;20221;-55
2022/04/15 04:41:27;;;;;;;92.03;14.47;;;;;;;;;;4958398;28;20205;-56
2022/04/15 04:43:53;;;;;;;195.17;30.83;;;;;;;;;;4938872;28;20552;-56
2022/04/15 04:46:19;;;;;;;160.47;25.20;;;;;;;;;;4948855;28;20222;-55
2022/04/15 04:48:44;;;;;;;181.90;28.07;;;;;;;;;;4949591;28;21358;-55
2022/04/15 04:51:10;;;;;;;98.93;16.30;;;;;;;;;;4948196;28;20229;-55
2022/04/15 04:53:36;;;;;;;101.00;16.40;;;;;;;;;;4944480;28;20186;-55
2022/04/15 04:56:02;;;;;;;121.30;18.83;;;;;;;;;;4950065;28;20269;-56
2022/04/15 04:58:28;;;;;;;129.53;20.07;;;;;;;;;;4948318;28;20755;-54
2022/04/15 05:00:54;;;;;;;178.27;27.57;;;;;;;;;;4940981;28;20222;-54
2022/04/15 05:03:20;;;;;;;102.57;16.27;;;;;;;;;;4945196;28;20245;-55
2022/04/15 05:05:46;;;;;;;121.00;19.17;;;;;;;;;;4940726;28;20368;-55
2022/04/15 05:08:12;;;;;;;142.03;22.20;;;;;;;;;;4949348;28;20461;-54
2022/04/15 05:10:39;;;;;;;83.43;13.20;;;;;;;;;;4956337;28;20226;-55
2022/04/15 05:13:05;;;;;;;113.10;18.13;;;;;;;;;;4953922;28;20207;-55
2022/04/15 05:15:31;;;;;;;112.90;17.93;;;;;;;;;;4944070;28;20382;-54
2022/04/15 05:17:57;;;;;;;185.87;28.00;;;;;;;;;;4948418;28;20218;-56
2022/04/15 05:20:23;;;;;;;100.93;16.13;;;;;;;;;;4967702;28;22642;-56
2022/04/15 05:22:49;;;;;;;178.93;27.03;;;;;;;;;;4939546;28;20242;-55
2022/04/15 05:28:18;;;;;;;161.87;25.90;;;;;;;;;;5003626;28;20621;-54
2022/04/15 05:30:44;;;;;;;136.97;22.03;;;;;;;;;;4976658;28;20263;-53
2022/04/15 05:33:10;;;;;;;177.03;26.90;;;;;;;;;;4974988;28;20221;-54
2022/04/15 05:35:36;;;;;;;147.60;23.13;;;;;;;;;;4982077;28;20209;-53
2022/04/15 05:38:02;;;;;;;83.33;13.27;;;;;;;;;;4990668;28;20209;-54
2022/04/15 05:40:28;;;;;;;94.53;16.33;;;;;;;;;;4987045;28;20282;-55
2022/04/15 05:42:55;;;;;;;79.90;13.67;;;;;;;;;;4986639;28;20706;-55
2022/04/15 05:45:20;;;;;;;185.50;30.90;;;;;;;;;;4971859;28;20213;-55
2022/04/15 05:47:46;;;;;;;98.20;16.83;;;;;;;;;;4979500;28;20275;-54
2022/04/15 05:50:12;;;;;;;114.93;18.90;;;;;;;;;;4988845;28;20196;-54
2022/04/15 05:52:38;;;;;;;137.70;23.87;;;;;;;;;;4978245;28;20303;-55
2022/04/15 05:55:04;;;;;;;113.87;19.67;;;;;;;;;;4974267;28;20573;-55
2022/04/15 05:57:30;;;;;;;159.27;26.77;;;;;;;;;;4977593;28;20641;-55
2022/04/15 05:59:56;;;;;;;125.50;20.60;;;;;;;;;;4979159;28;20317;-55
2022/04/15 06:02:24;;;;;;;128.00;22.67;;;;;;;;;;4973814;28;21197;-55
2022/04/15 06:04:50;;;;;;;166.27;26.97;;;;;;;;;;4956296;28;21069;-55
2022/04/15 06:07:16;;;;;;;177.00;28.93;;;;;;;;;;4966895;28;20319;-55
2022/04/15 06:09:42;;;;;;;188.77;31.67;;;;;;;;;;4975120;28;20487;-55
2022/04/15 06:12:08;;;;;;;136.23;21.77;;;;;;;;;;4983108;28;20335;-55
2022/04/15 06:14:36;;;;;;;234.60;42.67;;;;;;;;;;4974084;28;20220;-55
2022/04/15 06:17:02;;;;;;;176.73;28.00;;;;;;;;;;4974540;28;20214;-55
2022/04/15 06:19:28;;;;;;;259.73;43.13;;;;;;;;;;4964546;28;20221;-55
2022/04/15 06:21:54;;;;;;;197.90;32.23;;;;;;;;;;4965632;28;20241;-55
2022/04/15 06:24:20;;;;;;;109.53;18.53;;;;;;;;;;4981669;28;20209;-55
2022/04/15 06:26:46;;;;;;;109.07;18.53;;;;;;;;;;4977247;28;20225;-55
2022/04/15 06:29:12;;;;;;;142.20;23.10;;;;;;;;;;4979435;28;20185;-55
2022/04/15 06:31:38;;;;;;;119.80;19.63;;;;;;;;;;4982748;28;20221;-55
2022/04/15 06:34:04;;;;;;;225.17;36.33;;;;;;;;;;4969113;28;20451;-55
2022/04/15 06:36:30;;;;;;;119.33;19.83;;;;;;;;;;4980206;28;20712;-55
2022/04/15 06:38:56;;;;;;;134.67;22.33;;;;;;;;;;4975852;28;20578;-55
2022/04/15 06:41:22;;;;;;;151.93;25.23;;;;;;;;;;4964969;28;20193;-55
2022/04/15 06:43:48;;;;;;;197.70;33.07;;;;;;;;;;4951758;28;20268;-56
2022/04/15 06:46:14;;;;;;;113.77;18.57;;;;;;;;;;4962930;28;20316;-55
2022/04/15 06:48:40;;;;;;;195.03;30.60;;;;;;;;;;4960562;28;20963;-55
2022/04/15 06:51:06;;;;;;;161.70;25.33;;;;;;;;;;4959951;28;20221;-55
2022/04/15 06:53:32;;;;;;;180.20;29.47;;;;;;;;;;4970846;28;20256;-55
2022/04/15 06:55:58;;;;;;;217.80;34.67;;;;;;;;;;4970796;28;20214;-53
2022/04/15 06:58:24;;;;;;;100.70;16.37;;;;;;;;;;4965180;28;20214;-53
2022/04/15 07:00:51;;;;;;;129.20;20.63;;;;;;;;;;4969789;28;20273;-54
2022/04/15 07:03:17;;;;;;;101.73;16.97;;;;;;;;;;4974501;28;20244;-53
2022/04/15 07:05:44;;;;;;;138.37;22.43;;;;;;;;;;4964521;28;20283;-53
2022/04/15 07:08:11;;;;;;;134.83;21.47;;;;;;;;;;4962872;28;20570;-53
2022/04/15 07:10:37;;;;;;;162.87;25.83;;;;;;;;;;4972835;28;20240;-53
2022/04/15 07:13:03;;;;;;;99.90;15.87;;;;;;;;;;4972625;28;20217;-53
2022/04/15 07:15:29;;;;;;;207.10;32.97;;;;;;;;;;4958790;28;20218;-53
2022/04/15 07:18:00;;;;;;;118.63;19.00;;;;;;;;;;4962636;28;20248;-53
2022/04/15 07:20:26;;;;;;;142.37;22.53;;;;;;;;;;4968494;28;20786;-54
2022/04/15 07:22:58;;;;;;;111.80;17.93;;;;;;;;;;4968974;28;20276;-56
2022/04/15 07:25:25;;;;;;;128.43;22.13;;;;;;;;;;4967214;28;20228;-53
2022/04/15 07:27:52;;;;;;;78.17;13.57;;;;;;;;;;4978453;28;20344;-53
2022/04/15 07:30:18;;;;;;;200.10;31.13;;;;;;;;;;4966784;28;20222;-54
2022/04/15 07:32:44;;;;;;;62.70;10.83;;;;;;;;;;4974141;28;20663;-54
2022/04/15 07:35:10;;;;;;;118.70;18.97;;;;;;;;;;4972137;28;20285;-54
2022/04/15 07:37:37;;;;;;;63.17;11.17;;;;;;;;;;4973123;28;20240;-53
2022/04/15 07:40:03;;;;;;;126.27;21.13;;;;;;;;;;4966756;28;20401;-54
2022/04/15 07:42:29;;;;;;;145.87;24.50;;;;;;;;;;4974155;28;20292;-53
2022/04/15 07:44:55;;;;;;;105.00;17.47;;;;;;;;;;4967466;28;20352;-54
2022/04/15 07:47:22;;;;;;;96.07;16.90;;;;;;;;;;4975805;28;20619;-54
2022/04/15 07:49:50;;;;;;;148.43;25.43;;;;;;;;;;4964257;28;20646;-54
2022/04/15 07:52:16;;;;;;;99.13;16.97;;;;;;;;;;4966872;28;20303;-54
2022/04/15 07:54:42;;;;;;;75.33;13.63;;;;;;;;;;4965335;28;20217;-53
2022/04/15 07:57:08;;;;;;;79.90;13.63;;;;;;;;;;4971466;28;20292;-53
2022/04/15 07:59:34;;;;;;;114.03;19.77;;;;;;;;;;4974094;28;20583;-53
2022/04/15 08:02:02;;;;;;;154.97;25.83;;;;;;;;;;4962901;28;20198;-54
2022/04/15 08:04:30;;;;;;;104.40;18.03;;;;;;;;;;4965941;28;20225;-55
2022/04/15 08:06:56;;;;;;;73.50;13.30;;;;;;;;;;4969600;28;20201;-54
2022/04/15 08:09:22;;;;;;;88.57;15.57;;;;;;;;;;4971790;28;20212;-54
2022/04/15 08:11:49;;;;;;;182.90;31.73;;;;;;;;;;4960397;28;20515;-54
2022/04/15 08:14:14;;;;;;;107.27;18.80;;;;;;;;;;4970164;28;20183;-54
2022/04/15 08:16:40;;;;;;;158.20;25.57;;;;;;;;;;4964460;28;20219;-54
2022/04/15 08:19:06;;;;;;;133.97;22.40;;;;;;;;;;4958189;28;20351;-54
2022/04/15 08:21:33;;;;;;;204.90;33.90;;;;;;;;;;4960338;28;20237;-54
2022/04/15 08:24:01;;;;;;;191.10;30.40;;;;;;;;;;4965541;28;20620;-54
2022/04/15 08:26:27;;;;;;;172.87;27.93;;;;;;;;;;4967136;28;20229;-54
2022/04/15 08:28:53;;;;;;;167.07;27.23;;;;;;;;;;4963003;28;20270;-54
2022/04/15 08:31:19;;;;;;;200.33;32.73;;;;;;;;;;4958248;28;20229;-54
2022/04/15 08:33:46;;;;;;;149.73;24.63;;;;;;;;;;4958202;28;20819;-54
2022/04/15 08:36:12;;;;;;;165.23;27.93;;;;;;;;;;4958248;28;20269;-54
2022/04/15 08:38:38;;;;;;;123.13;20.03;;;;;;;;;;4974572;28;20251;-54
2022/04/15 08:41:06;;;;;;;89.13;14.80;;;;;;;;;;4970256;28;20261;-54
2022/04/15 08:43:31;;;;;;;250.90;40.60;;;;;;;;;;4954108;28;20255;-54
2022/04/15 08:46:02;;;;;;;101.70;16.47;;;;;;;;;;4968962;28;20217;-54
2022/04/15 08:48:28;;;;;;;157.97;26.10;;;;;;;;;;4971976;28;20290;-54
2022/04/15 08:50:54;;;;;;;186.60;30.20;;;;;;;;;;4956400;28;20286;-54
2022/04/15 08:53:22;;;;;;;144.00;23.43;;;;;;;;;;4969922;28;20530;-54
2022/04/15 08:55:48;;;;;;;150.37;24.70;;;;;;;;;;4968629;28;20217;-54
2022/04/15 08:58:14;;;;;;;95.50;16.20;;;;;;;;;;4973446;28;20358;-54
2022/04/15 09:00:40;;;;;;;89.53;14.93;;;;;;;;;;4964895;28;20225;-54
2022/04/15 09:03:06;;;;;;;99.07;16.33;;;;;;;;;;4963386;28;20878;-53
2022/04/15 09:05:32;;;;;;;183.50;29.83;;;;;;;;;;4960232;28;20209;-53
2022/04/15 09:08:10;;;;;;;165.63;25.87;;;;;;;;;;4964838;28;20173;-54
2022/04/15 09:10:36;;;;;;;163.77;26.20;;;;;;;;;;4968451;28;20209;-53
2022/04/15 09:13:03;;;;;;;109.07;17.70;;;;;;;;;;4969431;28;20224;-54
2022/04/15 09:15:30;;;;;;;119.07;19.50;;;;;;;;;;4963121;28;20231;-54
2022/04/15 09:17:59;;;;;;;119.50;19.57;;;;;;;;;;4965540;28;20241;-53
2022/04/15 09:20:26;;;;;;;103.00;17.30;;;;;;;;;;4972156;28;20182;-53
2022/04/15 09:22:56;;;;;;;139.90;22.50;;;;;;;;;;4963493;28;20616;-53
2022/04/15 09:25:26;;;;;;;166.70;26.57;;;;;;;;;;4967586;28;20819;-53
2022/04/15 09:27:56;;;;;;;106.70;17.57;;;;;;;;;;4968001;28;20308;-53
2022/04/15 09:30:32;;;;;;;154.87;24.60;;;;;;;;;;4963294;28;20225;-54
2022/04/15 09:33:02;;;;;;;208.40;32.30;;;;;;;;;;4960395;28;20225;-54
2022/04/15 09:35:28;;;;;;;208.37;33.93;;;;;;;;;;4960910;28;20212;-54
2022/04/15 09:37:54;;;;;;;177.50;28.23;;;;;;;;;;4964737;28;20220;-54
2022/04/15 09:40:31;;;;;;;119.13;19.27;;;;;;;;;;4972232;28;20206;-54
2022/04/15 09:42:58;;;;;;;102.60;16.87;;;;;;;;;;4967245;28;20309;-54
2022/04/15 09:45:30;;;;;;;174.20;27.80;;;;;;;;;;4956055;28;20225;-54
2022/04/15 09:47:57;;;;;;;150.33;24.03;;;;;;;;;;4967963;28;20319;-54
2022/04/15 09:50:25;;;;;;;251.63;40.57;;;;;;;;;;4962222;28;20790;-54
2022/04/15 09:52:51;;;;;;;140.67;23.40;;;;;;;;;;4962390;28;20230;-53
2022/04/15 09:55:20;;;;;;;120.77;19.73;;;;;;;;;;4966807;28;21467;-54
2022/04/15 09:57:46;;;;;;;133.17;22.07;;;;;;;;;;4962679;28;20217;-54
2022/04/15 10:00:13;;;;;;;151.73;25.17;;;;;;;;;;4965995;28;20644;-54
2022/04/15 10:02:39;;;;;;;145.60;23.80;;;;;;;;;;4966172;28;22515;-54
2022/04/15 10:05:05;;;;;;;104.13;17.37;;;;;;;;;;4988011;28;20186;-53
2022/04/15 10:07:33;;;;;;;101.10;16.43;;;;;;;;;;4971785;28;20214;-53
2022/04/15 10:10:00;;;;;;;238.97;36.57;;;;;;;;;;4963225;28;20717;-54
2022/04/15 10:12:27;;;;;;;157.67;24.27;;;;;;;;;;4974507;28;20248;-54
2022/04/15 10:14:53;;;;;;;98.77;16.07;;;;;;;;;;4978645;28;20217;-55
2022/04/15 10:17:22;;;;;;;142.10;22.27;;;;;;;;;;4969248;28;20702;-55
2022/04/15 10:19:49;;;;;;;257.23;38.90;;;;;;;;;;4964500;28;20178;-55
2022/04/15 10:22:15;;;;;;;150.23;23.60;;;;;;;;;;4965770;28;20343;-54
2022/04/15 10:24:41;;;;;;;120.10;18.93;;;;;;;;;;4963248;28;20312;-55
2022/04/15 10:27:07;;;;;;;103.93;17.37;;;;;;;;;;4966395;28;20226;-54
2022/04/15 10:29:33;;;;;;;78.83;13.50;;;;;;;;;;4967485;28;20185;-54
2022/04/15 10:32:11;;;;;;;154.83;25.10;;;;;;;;;;4972320;28;20205;-54
2022/04/15 10:34:47;;;;;;;114.73;19.33;;;;;;;;;;4966976;28;20217;-53
2022/04/15 10:37:13;;;;;;;123.60;20.10;;;;;;;;;;4968221;28;20263;-54
2022/04/15 10:39:48;;;;;;;92.50;15.37;;;;;;;;;;4970130;28;20240;-55
2022/04/15 10:42:17;;;;;;;126.90;20.83;;;;;;;;;;4966963;28;20217;-54
2022/04/15 10:44:44;;;;;;;116.67;19.17;;;;;;;;;;4968698;28;20228;-54
2022/04/15 10:47:10;;;;;;;111.90;18.23;;;;;;;;;;4970976;28;20206;-55
2022/04/15 10:49:38;;;;;;;83.57;14.07;;;;;;;;;;4976520;28;20241;-54
2022/04/15 10:52:16;;;;;;;108.70;18.63;;;;;;;;;;4967573;28;20560;-54
2022/04/15 10:54:45;;;;;;;72.90;12.77;;;;;;;;;;4976477;28;20480;-54
2022/04/15 10:57:15;;;;;;;73.10;12.67;;;;;;;;;;4977961;28;20669;-54
2022/04/15 11:02:52;;;;;;;128.60;21.37;;;;;;;;;;4962657;28;20241;-54
2022/04/15 11:05:37;;;;;;;166.10;26.80;;;;;;;;;;4956818;28;20195;-54
2022/04/15 11:08:07;;;;;;;176.43;28.30;;;;;;;;;;4964765;28;20186;-54
2022/04/15 11:10:42;;;;;;;119.17;20.30;;;;;;;;;;4967063;28;20236;-54
2022/04/15 11:13:09;;;;;;;113.63;18.73;;;;;;;;;;4968924;28;20221;-54
2022/04/15 11:15:55;;;;;;;158.30;26.53;;;;;;;;;;4959259;28;20225;-53
2022/04/15 11:18:21;;;;;;;91.03;15.37;;;;;;;;;;4971379;28;20308;-54
2022/04/15 11:20:47;;;;;;;134.00;21.63;;;;;;;;;;4972311;28;20230;-53
2022/04/15 11:23:13;;;;;;;92.97;15.63;;;;;;;;;;4972910;28;20278;-53
2022/04/15 11:25:45;;;;;;;134.73;22.67;;;;;;;;;;4967314;28;20691;-54
2022/04/15 11:28:11;;;;;;;99.80;16.10;;;;;;;;;;4971591;28;20761;-54
2022/04/15 11:30:37;;;;;;;157.13;25.53;;;;;;;;;;4964500;28;20261;-54
2022/04/15 11:33:04;;;;;;;158.43;25.23;;;;;;;;;;4967126;28;20229;-54
2022/04/15 11:35:37;;;;;;;149.60;24.57;;;;;;;;;;4959385;28;20218;-54
2022/04/15 11:38:04;;;;;;;97.53;16.20;;;;;;;;;;4972451;28;20679;-54
2022/04/15 11:40:34;;;;;;;87.37;14.73;;;;;;;;;;4971775;28;20228;-54
2022/04/15 11:43:00;;;;;;;70.87;12.43;;;;;;;;;;4972210;28;20219;-54
2022/04/15 11:45:33;;;;;;;168.50;27.00;;;;;;;;;;4963511;28;21169;-54
2022/04/15 11:48:19;;;;;;;92.17;15.90;;;;;;;;;;4973713;28;20701;-54
2022/04/15 11:50:45;;;;;;;131.27;21.20;;;;;;;;;;4968610;28;20496;-54
2022/04/15 11:53:13;;;;;;;160.47;26.20;;;;;;;;;;4964622;28;20186;-54
2022/04/15 11:55:48;;;;;;;144.03;23.00;;;;;;;;;;4964517;28;20607;-54
2022/04/15 11:58:14;;;;;;;133.93;22.43;;;;;;;;;;4970806;28;20229;-54
2022/04/15 12:00:40;;;;;;;170.50;27.30;;;;;;;;;;4966732;28;20222;-54
2022/04/15 12:03:06;;;;;;;116.53;18.80;;;;;;;;;;4960522;28;20218;-54
2022/04/15 12:05:32;;;;;;;139.10;23.07;;;;;;;;;;4961150;28;20662;-54
2022/04/15 12:07:59;;;;;;;111.77;17.87;;;;;;;;;;4958112;28;20249;-54
2022/04/15 12:10:24;;;;;;;145.40;23.60;;;;;;;;;;4991880;28;20243;-54
2022/04/15 12:12:52;;;;;;;132.20;21.70;;;;;;;;;;5001998;28;20487;-54
2022/04/15 12:15:25;;;;;;;189.90;30.73;;;;;;;;;;4996361;28;20212;-54
2022/04/15 12:17:52;;;;;;;150.23;24.27;;;;;;;;;;5011723;28;20258;-54
2022/04/15 12:20:18;;;;;;;179.57;28.43;;;;;;;;;;5006422;28;20212;-54
2022/04/15 12:22:44;;;;;;;137.77;23.17;;;;;;;;;;5003451;28;20623;-54
2022/04/15 12:25:14;;;;;;;132.60;22.07;;;;;;;;;;5015673;28;20220;-55
2022/04/15 12:27:44;;;;;;;84.47;14.33;;;;;;;;;;5012679;28;20231;-54
2022/04/15 12:30:10;;;;;;;173.10;28.20;;;;;;;;;;5004334;28;20242;-54
2022/04/15 12:32:36;;;;;;;102.33;17.63;;;;;;;;;;5001433;28;20184;-54
2022/04/15 12:35:02;;;;;;;153.10;24.17;;;;;;;;;;5005913;28;20338;-54
2022/04/15 12:37:39;;;;;;;116.47;19.20;;;;;;;;;;5006696;28;20225;-54
2022/04/15 12:40:08;;;;;;;178.00;28.80;;;;;;;;;;5007528;28;20220;-54
2022/04/15 12:42:35;;;;;;;172.67;27.67;;;;;;;;;;5004329;28;20294;-54
2022/04/15 12:45:03;;;;;;;127.27;21.13;;;;;;;;;;5005488;28;20611;-54
2022/04/15 12:47:29;;;;;;;106.37;18.27;;;;;;;;;;5010511;28;20229;-54
2022/04/15 12:50:15;;;;;;;205.83;33.93;;;;;;;;;;5005638;28;20591;-54
2022/04/15 12:52:41;;;;;;;86.77;14.57;;;;;;;;;;5011779;28;20955;-54
2022/04/15 12:55:08;;;;;;;135.33;21.77;;;;;;;;;;5008900;28;20333;-54
2022/04/15 12:57:36;;;;;;;254.20;38.93;;;;;;;;;;5007371;28;20219;-54
2022/04/15 13:00:04;;;;;;;211.77;31.87;;;;;;;;;;5000794;28;20228;-54
2022/04/15 13:02:30;;;;;;;83.70;14.43;;;;;;;;;;5003462;28;20272;-54
2022/04/15 13:04:57;;;;;;;231.57;34.87;;;;;;;;;;5000858;28;20185;-54
2022/04/15 13:07:23;;;;;;;91.20;15.67;;;;;;;;;;5003020;28;20227;-54
2022/04/15 13:09:50;;;;;;;88.47;14.93;;;;;;;;;;5016295;28;20208;-54
2022/04/15 13:12:19;;;;;;;78.40;13.37;;;;;;;;;;5014650;28;20219;-54
2022/04/15 13:14:45;;;;;;;132.00;22.13;;;;;;;;;;5004811;28;20209;-53
2022/04/15 13:17:13;;;;;;;157.63;25.60;;;;;;;;;;4999306;28;20225;-54
2022/04/15 13:19:40;;;;;;;104.43;16.73;;;;;;;;;;5005768;28;20270;-53
2022/04/15 13:22:06;;;;;;;201.33;30.60;;;;;;;;;;4992766;28;20734;-54
2022/04/15 13:24:32;;;;;;;151.50;22.87;;;;;;;;;;5008297;28;20581;-54
2022/04/15 13:26:58;;;;;;;260.53;39.80;;;;;;;;;;5002580;28;20701;-54
2022/04/15 13:29:24;;;;;;;94.53;16.10;;;;;;;;;;5007223;28;20186;-54
2022/04/15 13:31:51;;;;;;;118.27;18.83;;;;;;;;;;5004225;28;20256;-54
2022/04/15 13:34:17;;;;;;;83.43;14.13;;;;;;;;;;5009864;28;20763;-54
2022/04/15 13:36:43;;;;;;;77.23;13.00;;;;;;;;;;5008531;28;20235;-53
2022/04/15 13:39:09;;;;;;;173.93;28.47;;;;;;;;;;5008071;28;20212;-53
2022/04/15 13:41:36;;;;;;;67.17;12.17;;;;;;;;;;5012326;28;20672;-53
2022/04/15 13:44:02;;;;;;;72.27;12.60;;;;;;;;;;5016384;28;20176;-54
2022/04/15 13:46:28;;;;;;;108.10;18.27;;;;;;;;;;5003816;28;20293;-54
2022/04/15 13:48:54;;;;;;;101.10;17.03;;;;;;;;;;5013406;28;20256;-53
2022/04/15 13:51:23;;;;;;;88.03;15.03;;;;;;;;;;5017052;28;20215;-54
2022/04/15 13:56:43;;;;;;;87.07;15.40;;;;;;;;;;5018060;28;20246;-54
2022/04/15 13:59:10;;;;;;;179.00;28.80;;;;;;;;;;5005464;28;20211;-54
2022/04/15 14:01:36;;;;;;;109.73;17.93;;;;;;;;;;5010077;28;20220;-54
2022/04/15 14:04:07;;;;;;;222.57;32.60;;;;;;;;;;5000041;28;20220;-54
2022/04/15 14:06:37;;;;;;;205.47;31.20;;;;;;;;;;5009276;28;21291;-54
2022/04/15 14:09:03;;;;;;;233.67;35.77;;;;;;;;;;5011413;28;20211;-54
2022/04/15 14:11:31;;;;;;;127.87;20.73;;;;;;;;;;5014416;28;20184;-53
2022/04/15 14:13:59;;;;;;;144.80;22.53;;;;;;;;;;5008723;28;20212;-52